Time;durP1;ratioP1;P1;durP2;ratioP2;P2;SDS_P1;SDS_P2;PMS_P1;PMS_P2;Temp;Humidity;BMP_temperature;BMP_pressure;BME280_temperature;BME280_humidity;BME280_pressure;Samples;Min_cycle;Max_cycle;Signal;HPM_P1;HPM_P2
2021/09/12 00:01:46;;;;;;;;;;;;;;;;;;5005221;28;19905;-69
2021/09/12 00:04:11;;;;;;;;;;;;;;;;;;4987866;28;19921;-70
2021/09/12 00:06:39;;;;;;;;;;;;;;;;;;5006482;28;19925;-71
2021/09/12 00:09:04;;;;;;;;;;;;;;;;;;5005078;28;19906;-70
2021/09/12 00:11:29;;;;;;;;;;;;;;;;;;5010881;28;19914;-71
2021/09/12 00:13:55;;;;;;;;;;;;;;;;;;5004097;28;19977;-71
2021/09/12 00:16:20;;;;;;;;;;;;;;;;;;5014041;28;19913;-71
2021/09/12 00:18:45;;;;;;;;;;;;;;;;;;5003790;28;19917;-69
2021/09/12 00:21:10;;;;;;;;;;;;;;;;;;5007414;28;19916;-70
2021/09/12 00:23:36;;;;;;;;;;;;;;;;;;5007430;28;19960;-71
2021/09/12 00:26:01;;;;;;;;;;;;;;;;;;5011591;28;19906;-71
2021/09/12 00:28:26;;;;;;;;;;;;;;;;;;5002249;28;19922;-71
2021/09/12 00:30:51;;;;;;;;;;;;;;;;;;5005693;28;19916;-70
2021/09/12 00:33:16;;;;;;;;;;;;;;;;;;5003585;28;19910;-71
2021/09/12 00:35:42;;;;;;;;;;;;;;;;;;5004327;28;19933;-71
2021/09/12 00:38:08;;;;;;;;;;;;;;;;;;5005871;28;19934;-72
2021/09/12 00:40:33;;;;;;;;;;;;;;;;;;5008282;28;19914;-71
2021/09/12 00:42:58;;;;;;;;;;;;;;;;;;5008170;28;19918;-69
2021/09/12 00:45:23;;;;;;;;;;;;;;;;;;5006589;28;19933;-70
2021/09/12 00:47:49;;;;;;;;;;;;;;;;;;5012851;28;19910;-70
2021/09/12 00:50:14;;;;;;;;;;;;;;;;;;5003429;28;19981;-71
2021/09/12 00:52:39;;;;;;;;;;;;;;;;;;5005341;28;19921;-71
2021/09/12 00:55:07;;;;;;;;;;;;;;;;;;5004120;28;19906;-71
2021/09/12 00:57:33;;;;;;;;;;;;;;;;;;5003614;28;19928;-71
2021/09/12 00:59:59;;;;;;;;;;;;;;;;;;5004325;28;20228;-70
2021/09/12 01:02:24;;;;;;;;;;;;;;;;;;5004843;28;19918;-71
2021/09/12 01:04:49;;;;;;;;;;;;;;;;;;5005620;28;19973;-70
2021/09/12 01:07:14;;;;;;;;;;;;;;;;;;5007603;28;19918;-71
2021/09/12 01:09:42;;;;;;;;;;;;;;;;;;5008643;28;20005;-71
2021/09/12 01:12:07;;;;;;;;;;;;;;;;;;5005894;28;19906;-71
2021/09/12 01:14:32;;;;;;;;;;;;;;;;;;5003574;28;19933;-69
2021/09/12 01:16:58;;;;;;;;;;;;;;;;;;5006115;28;19973;-70
2021/09/12 01:19:23;;;;;;;;;;;;;;;;;;5003031;28;19926;-71
2021/09/12 01:21:48;;;;;;;;;;;;;;;;;;5007229;28;19930;-71
2021/09/12 01:24:13;;;;;;;;;;;;;;;;;;5000384;28;19941;-71
2021/09/12 01:26:39;;;;;;;;;;;;;;;;;;5007187;28;19926;-71
2021/09/12 01:29:04;;;;;;;;;;;;;;;;;;5003335;28;19906;-71
2021/09/12 01:31:29;;;;;;;;;;;;;;;;;;5004110;28;19906;-71
2021/09/12 01:33:54;;;;;;;;;;;;;;;;;;5005202;28;19906;-71
2021/09/12 01:36:19;;;;;;;;;;;;;;;;;;5003672;28;19992;-71
2021/09/12 01:38:45;;;;;;;;;;;;;;;;;;5003588;28;19937;-69
2021/09/12 01:41:10;;;;;;;;;;;;;;;;;;5003377;28;19929;-71
2021/09/12 01:43:35;;;;;;;;;;;;;;;;;;5004819;28;19930;-70
2021/09/12 01:46:03;;;;;;;;;;;;;;;;;;5006495;28;19906;-71
2021/09/12 01:48:28;;;;;;;;;;;;;;;;;;5003993;28;19922;-72
2021/09/12 01:50:53;;;;;;;;;;;;;;;;;;5003413;28;20217;-71
2021/09/12 01:53:19;;;;;;;;;;;;;;;;;;5007129;28;19925;-71
2021/09/12 01:55:44;;;;;;;;;;;;;;;;;;5005455;28;19906;-72
2021/09/12 01:58:11;;;;;;;;;;;;;;;;;;5000360;28;19919;-70
2021/09/12 02:00:37;;;;;;;;;;;;;;;;;;5003944;28;19913;-71
2021/09/12 02:03:02;;;;;;;;;;;;;;;;;;5005818;28;19914;-71
2021/09/12 02:05:27;;;;;;;;;;;;;;;;;;5005138;28;19961;-70
2021/09/12 02:07:52;;;;;;;;;;;;;;;;;;5000229;28;19910;-70
2021/09/12 02:10:26;;;;;;;;;;;;;;;;;;5001650;28;19914;-69
2021/09/12 02:12:51;;;;;;;;;;;;;;;;;;5003066;28;19929;-71
2021/09/12 02:15:16;;;;;;;;;;;;;;;;;;5002370;28;19914;-71
2021/09/12 02:17:41;;;;;;;;;;;;;;;;;;5006249;28;19906;-69
2021/09/12 02:20:07;;;;;;;;;;;;;;;;;;5001357;28;19910;-70
2021/09/12 02:22:32;;;;;;;;;;;;;;;;;;5003808;28;19926;-71
2021/09/12 02:24:57;;;;;;;;;;;;;;;;;;5003210;28;19954;-70
2021/09/12 02:27:22;;;;;;;;;;;;;;;;;;5003484;28;19922;-71
2021/09/12 02:29:47;;;;;;;;;;;;;;;;;;5007895;28;19913;-71
2021/09/12 02:32:16;;;;;;;;;;;;;;;;;;5002665;28;19981;-71
2021/09/12 02:34:41;;;;;;;;;;;;;;;;;;5002414;28;19914;-69
2021/09/12 02:37:06;;;;;;;;;;;;;;;;;;5000248;28;19903;-70
2021/09/12 02:39:31;;;;;;;;;;;;;;;;;;5005160;28;19922;-70
2021/09/12 02:41:57;;;;;;;;;;;;;;;;;;5000808;28;19917;-71
2021/09/12 02:44:22;;;;;;;;;;;;;;;;;;5009379;28;19914;-71
2021/09/12 02:46:47;;;;;;;;;;;;;;;;;;5002933;28;20181;-71
2021/09/12 02:49:12;;;;;;;;;;;;;;;;;;5006495;28;19973;-72
2021/09/12 02:51:42;;;;;;;;;;;;;;;;;;5001215;28;20459;-71
2021/09/12 02:54:09;;;;;;;;;;;;;;;;;;5001940;28;19918;-71
2021/09/12 02:56:35;;;;;;;;;;;;;;;;;;5003987;28;19906;-71
2021/09/12 02:59:00;;;;;;;;;;;;;;;;;;5002523;28;19940;-71
2021/09/12 03:01:25;;;;;;;;;;;;;;;;;;5003157;28;19918;-72
2021/09/12 03:03:50;;;;;;;;;;;;;;;;;;5005617;28;19940;-72
2021/09/12 03:06:16;;;;;;;;;;;;;;;;;;5002886;28;19941;-71
2021/09/12 03:08:42;;;;;;;;;;;;;;;;;;5001810;28;20098;-69
2021/09/12 03:11:08;;;;;;;;;;;;;;;;;;5001349;28;19970;-71
2021/09/12 03:13:35;;;;;;;;;;;;;;;;;;5008574;28;19922;-72
2021/09/12 03:16:01;;;;;;;;;;;;;;;;;;4999173;28;19906;-71
2021/09/12 03:18:26;;;;;;;;;;;;;;;;;;5003560;28;19906;-71
2021/09/12 03:20:51;;;;;;;;;;;;;;;;;;5001219;28;19914;-71
2021/09/12 03:23:16;;;;;;;;;;;;;;;;;;5001655;28;19906;-70
2021/09/12 03:25:42;;;;;;;;;;;;;;;;;;5005371;28;19922;-71
2021/09/12 03:28:07;;;;;;;;;;;;;;;;;;5005440;28;20016;-71
2021/09/12 03:30:32;;;;;;;;;;;;;;;;;;5010800;28;19913;-71
2021/09/12 03:32:57;;;;;;;;;;;;;;;;;;5002052;28;19974;-71
2021/09/12 03:35:22;;;;;;;;;;;;;;;;;;5005360;28;19933;-72
2021/09/12 03:37:48;;;;;;;;;;;;;;;;;;5007196;28;19905;-71
2021/09/12 03:40:13;;;;;;;;;;;;;;;;;;5009455;28;19906;-72
2021/09/12 03:42:38;;;;;;;;;;;;;;;;;;5006840;28;19906;-71
2021/09/12 03:45:03;;;;;;;;;;;;;;;;;;5006756;28;19929;-71
2021/09/12 03:47:29;;;;;;;;;;;;;;;;;;5006929;28;19949;-70
2021/09/12 03:49:54;;;;;;;;;;;;;;;;;;5005405;28;19962;-70
2021/09/12 03:52:19;;;;;;;;;;;;;;;;;;5011780;28;19921;-70
2021/09/12 03:54:44;;;;;;;;;;;;;;;;;;5005847;28;19916;-71
2021/09/12 03:57:09;;;;;;;;;;;;;;;;;;5006672;28;19929;-71
2021/09/12 03:59:35;;;;;;;;;;;;;;;;;;5003071;28;19906;-71
2021/09/12 04:02:00;;;;;;;;;;;;;;;;;;5003323;28;19906;-71
2021/09/12 04:04:25;;;;;;;;;;;;;;;;;;5005222;28;19917;-71
2021/09/12 04:06:50;;;;;;;;;;;;;;;;;;5006604;28;19962;-71
2021/09/12 04:09:18;;;;;;;;;;;;;;;;;;5004273;28;19902;-72
2021/09/12 04:11:43;;;;;;;;;;;;;;;;;;5004796;28;19968;-71
2021/09/12 04:14:11;;;;;;;;;;;;;;;;;;5007541;28;20097;-71
2021/09/12 04:16:38;;;;;;;;;;;;;;;;;;5003391;28;19914;-71
2021/09/12 04:19:06;;;;;;;;;;;;;;;;;;5007077;28;19906;-70
2021/09/12 04:21:31;;;;;;;;;;;;;;;;;;5004901;28;19907;-71
2021/09/12 04:23:56;;;;;;;;;;;;;;;;;;5006672;28;19965;-72
2021/09/12 04:26:21;;;;;;;;;;;;;;;;;;5004758;28;19909;-71
2021/09/12 04:28:47;;;;;;;;;;;;;;;;;;5006559;28;19941;-72
2021/09/12 04:31:12;;;;;;;;;;;;;;;;;;5007240;28;19977;-72
2021/09/12 04:33:37;;;;;;;;;;;;;;;;;;5006087;28;19928;-72
2021/09/12 04:36:02;;;;;;;;;;;;;;;;;;5003316;28;19906;-71
2021/09/12 04:38:28;;;;;;;;;;;;;;;;;;5002750;28;19906;-70
2021/09/12 04:40:53;;;;;;;;;;;;;;;;;;5007605;28;19933;-71
2021/09/12 04:43:18;;;;;;;;;;;;;;;;;;5003929;28;19957;-71
2021/09/12 04:45:43;;;;;;;;;;;;;;;;;;5004436;28;19932;-71
2021/09/12 04:48:09;;;;;;;;;;;;;;;;;;5005772;28;19930;-71
2021/09/12 04:50:34;;;;;;;;;;;;;;;;;;5004261;28;19998;-71
2021/09/12 04:52:59;;;;;;;;;;;;;;;;;;5012592;28;20157;-71
2021/09/12 04:55:24;;;;;;;;;;;;;;;;;;5005536;28;19910;-71
2021/09/12 04:57:49;;;;;;;;;;;;;;;;;;5001878;28;19906;-72
2021/09/12 05:00:15;;;;;;;;;;;;;;;;;;5005396;28;19938;-72
2021/09/12 05:02:40;;;;;;;;;;;;;;;;;;5003923;28;19933;-69
2021/09/12 05:05:05;;;;;;;;;;;;;;;;;;5001659;28;19926;-71
2021/09/12 05:07:30;;;;;;;;;;;;;;;;;;5005121;28;19930;-71
2021/09/12 05:09:56;;;;;;;;;;;;;;;;;;5003448;28;19906;-71
2021/09/12 05:12:21;;;;;;;;;;;;;;;;;;5003375;28;19918;-71
2021/09/12 05:14:46;;;;;;;;;;;;;;;;;;5004968;28;19906;-72
2021/09/12 05:17:11;;;;;;;;;;;;;;;;;;4990452;28;19906;-71
2021/09/12 05:19:36;;;;;;;;;;;;;;;;;;5004250;28;19944;-72
2021/09/12 05:22:02;;;;;;;;;;;;;;;;;;5004650;28;19922;-72
2021/09/12 05:24:27;;;;;;;;;;;;;;;;;;5007866;28;19916;-72
2021/09/12 05:26:52;;;;;;;;;;;;;;;;;;5007836;28;19912;-72
2021/09/12 05:29:18;;;;;;;;;;;;;;;;;;5002082;28;19914;-71
2021/09/12 05:31:43;;;;;;;;;;;;;;;;;;5004573;28;19937;-72
2021/09/12 05:34:08;;;;;;;;;;;;;;;;;;5003502;28;19914;-72
2021/09/12 05:36:34;;;;;;;;;;;;;;;;;;5005587;28;19941;-72
2021/09/12 05:38:59;;;;;;;;;;;;;;;;;;5003608;28;19922;-72
2021/09/12 05:41:24;;;;;;;;;;;;;;;;;;5007175;28;19916;-72
2021/09/12 05:43:49;;;;;;;;;;;;;;;;;;5003529;28;19954;-72
2021/09/12 05:46:17;;;;;;;;;;;;;;;;;;5004881;28;19906;-72
2021/09/12 05:48:42;;;;;;;;;;;;;;;;;;5003865;28;19926;-72
2021/09/12 05:51:07;;;;;;;;;;;;;;;;;;5003865;28;19913;-72
2021/09/12 05:53:33;;;;;;;;;;;;;;;;;;5005970;28;19921;-71
2021/09/12 05:55:58;;;;;;;;;;;;;;;;;;5002616;28;19917;-73
2021/09/12 05:58:23;;;;;;;;;;;;;;;;;;5005255;28;20223;-72
2021/09/12 06:00:48;;;;;;;;;;;;;;;;;;5003485;28;19933;-72
2021/09/12 06:03:13;;;;;;;;;;;;;;;;;;5005450;28;19934;-72
2021/09/12 06:05:39;;;;;;;;;;;;;;;;;;5001615;28;19926;-72
2021/09/12 06:08:04;;;;;;;;;;;;;;;;;;5004147;28;19914;-72
2021/09/12 06:10:29;;;;;;;;;;;;;;;;;;5003818;28;20016;-69
2021/09/12 06:12:55;;;;;;;;;;;;;;;;;;5002429;28;19948;-71
2021/09/12 06:15:20;;;;;;;;;;;;;;;;;;5004285;28;19973;-71
2021/09/12 06:17:45;;;;;;;;;;;;;;;;;;5002652;28;19938;-72
2021/09/12 06:20:13;;;;;;;;;;;;;;;;;;5003627;28;19966;-72
2021/09/12 06:22:38;;;;;;;;;;;;;;;;;;5002423;28;19906;-72
2021/09/12 06:25:03;;;;;;;;;;;;;;;;;;5003096;28;20161;-72
2021/09/12 06:27:28;;;;;;;;;;;;;;;;;;5002933;28;19933;-72
2021/09/12 06:29:54;;;;;;;;;;;;;;;;;;5000673;28;19973;-73
2021/09/12 06:32:21;;;;;;;;;;;;;;;;;;5004770;28;19917;-72
2021/09/12 06:34:46;;;;;;;;;;;;;;;;;;5003963;28;19929;-72
2021/09/12 06:37:11;;;;;;;;;;;;;;;;;;5005839;28;19918;-71
2021/09/12 06:39:39;;;;;;;;;;;;;;;;;;5002732;28;19916;-70
2021/09/12 06:42:04;;;;;;;;;;;;;;;;;;5005879;28;19937;-68
2021/09/12 06:44:29;;;;;;;;;;;;;;;;;;4999955;28;19933;-71
2021/09/12 06:46:54;;;;;;;;;;;;;;;;;;5002277;28;20256;-71
2021/09/12 06:49:20;;;;;;;;;;;;;;;;;;5003159;28;19957;-71
2021/09/12 06:51:45;;;;;;;;;;;;;;;;;;5006263;28;19914;-71
2021/09/12 06:54:10;;;;;;;;;;;;;;;;;;5006323;28;19955;-71
2021/09/12 06:56:35;;;;;;;;;;;;;;;;;;5003786;28;19906;-71
2021/09/12 06:59:01;;;;;;;;;;;;;;;;;;5004151;28;19920;-71
2021/09/12 07:01:26;;;;;;;;;;;;;;;;;;5002584;28;20181;-72
2021/09/12 07:03:51;;;;;;;;;;;;;;;;;;4999939;28;19974;-74
2021/09/12 07:06:16;;;;;;;;;;;;;;;;;;5002949;28;19906;-74
2021/09/12 07:08:42;;;;;;;;;;;;;;;;;;5002730;28;19945;-72
2021/09/12 07:11:12;;;;;;;;;;;;;;;;;;5002621;28;19906;-69
2021/09/12 07:13:38;;;;;;;;;;;;;;;;;;5005783;28;19921;-73
2021/09/12 07:16:03;;;;;;;;;;;;;;;;;;5003730;28;20082;-69
2021/09/12 07:18:28;;;;;;;;;;;;;;;;;;5009641;28;19978;-69
2021/09/12 07:20:53;;;;;;;;;;;;;;;;;;5002201;28;19961;-70
2021/09/12 07:23:19;;;;;;;;;;;;;;;;;;5003472;28;19914;-73
2021/09/12 07:25:44;;;;;;;;;;;;;;;;;;5005438;28;19974;-72
2021/09/12 07:28:09;;;;;;;;;;;;;;;;;;5003458;28;19940;-72
2021/09/12 07:30:34;;;;;;;;;;;;;;;;;;5003176;28;19970;-72
2021/09/12 07:33:00;;;;;;;;;;;;;;;;;;5003387;28;19925;-72
2021/09/12 07:35:25;;;;;;;;;;;;;;;;;;5002336;28;19917;-72
2021/09/12 07:37:50;;;;;;;;;;;;;;;;;;5003325;28;19933;-73
2021/09/12 07:40:15;;;;;;;;;;;;;;;;;;5000787;28;19949;-69
2021/09/12 07:42:42;;;;;;;;;;;;;;;;;;5001794;28;19907;-68
2021/09/12 07:45:07;;;;;;;;;;;;;;;;;;5002071;28;19926;-70
2021/09/12 07:47:33;;;;;;;;;;;;;;;;;;5001657;28;19993;-69
2021/09/12 07:49:58;;;;;;;;;;;;;;;;;;4996521;28;20376;-70
2021/09/12 07:52:23;;;;;;;;;;;;;;;;;;4995205;28;19930;-69
2021/09/12 07:54:49;;;;;;;;;;;;;;;;;;4997983;28;19941;-70
2021/09/12 07:57:14;;;;;;;;;;;;;;;;;;4996058;28;20321;-70
2021/09/12 07:59:39;;;;;;;;;;;;;;;;;;5003954;28;20091;-70
2021/09/12 08:02:04;;;;;;;;;;;;;;;;;;4992226;28;19982;-68
2021/09/12 08:04:29;;;;;;;;;;;;;;;;;;4997710;28;19928;-68
2021/09/12 08:06:55;;;;;;;;;;;;;;;;;;4998712;28;20013;-68
2021/09/12 08:09:20;;;;;;;;;;;;;;;;;;4998827;28;20464;-70
2021/09/12 08:11:46;;;;;;;;;;;;;;;;;;5004280;28;19906;-69
2021/09/12 08:14:11;;;;;;;;;;;;;;;;;;5006004;28;19921;-70
2021/09/12 08:16:36;;;;;;;;;;;;;;;;;;5003925;28;20128;-69
2021/09/12 08:19:01;;;;;;;;;;;;;;;;;;5002589;28;19914;-69
2021/09/12 08:21:26;;;;;;;;;;;;;;;;;;5000470;28;21458;-69
2021/09/12 08:23:52;;;;;;;;;;;;;;;;;;5011273;28;19952;-69
2021/09/12 08:26:17;;;;;;;;;;;;;;;;;;5002328;28;19913;-68
2021/09/12 08:28:42;;;;;;;;;;;;;;;;;;5005284;28;19930;-68
2021/09/12 08:31:07;;;;;;;;;;;;;;;;;;5001892;28;19977;-69
2021/09/12 08:33:33;;;;;;;;;;;;;;;;;;4998877;28;19984;-70
2021/09/12 08:35:58;;;;;;;;;;;;;;;;;;5006204;28;19926;-70
2021/09/12 08:38:23;;;;;;;;;;;;;;;;;;4997342;28;19906;-71
2021/09/12 08:40:48;;;;;;;;;;;;;;;;;;5005298;28;19922;-68
2021/09/12 08:43:14;;;;;;;;;;;;;;;;;;5001756;28;19926;-69
2021/09/12 08:45:39;;;;;;;;;;;;;;;;;;5000374;28;19918;-69
2021/09/12 08:48:04;;;;;;;;;;;;;;;;;;5000285;28;20123;-69
2021/09/12 08:50:29;;;;;;;;;;;;;;;;;;5027659;28;19996;-68
2021/09/12 08:52:54;;;;;;;;;;;;;;;;;;5044594;28;19929;-70
2021/09/12 08:55:20;;;;;;;;;;;;;;;;;;5039290;28;19925;-68
2021/09/12 08:57:46;;;;;;;;;;;;;;;;;;5036621;28;19905;-70
2021/09/12 09:00:11;;;;;;;;;;;;;;;;;;5044469;28;19932;-69
2021/09/12 09:02:36;;;;;;;;;;;;;;;;;;5055090;28;19917;-70
2021/09/12 09:05:02;;;;;;;;;;;;;;;;;;5041986;28;19928;-70
2021/09/12 09:07:27;;;;;;;;;;;;;;;;;;5040777;28;19921;-70
2021/09/12 09:09:53;;;;;;;;;;;;;;;;;;5036766;28;19925;-69
2021/09/12 09:12:18;;;;;;;;;;;;;;;;;;5071505;28;20304;-70
2021/09/12 09:14:43;;;;;;;;;;;;;;;;;;5070743;28;19921;-70
2021/09/12 09:17:08;;;;;;;;;;;;;;;;;;5043872;28;19906;-70
2021/09/12 09:19:34;;;;;;;;;;;;;;;;;;5073148;28;19918;-70
2021/09/12 09:21:59;;;;;;;;;;;;;;;;;;5036004;28;19960;-70
2021/09/12 09:24:29;;;;;;;;;;;;;;;;;;5043140;28;19924;-72
2021/09/12 09:26:54;;;;;;;;;;;;;;;;;;5071501;28;19928;-72
2021/09/12 09:29:19;;;;;;;;;;;;;;;;;;5032285;28;19914;-72
2021/09/12 09:31:45;;;;;;;;;;;;;;;;;;5036838;28;19905;-72
2021/09/12 09:34:10;;;;;;;;;;;;;;;;;;5036908;28;20036;-72
2021/09/12 09:36:35;;;;;;;;;;;;;;;;;;5043247;28;20028;-73
2021/09/12 09:39:00;;;;;;;;;;;;;;;;;;5034965;28;19950;-73
2021/09/12 09:41:26;;;;;;;;;;;;;;;;;;5043419;28;20067;-73
2021/09/12 09:43:51;;;;;;;;;;;;;;;;;;5036894;28;19906;-74
2021/09/12 09:46:16;;;;;;;;;;;;;;;;;;5035765;28;19905;-73
2021/09/12 09:48:41;;;;;;;;;;;;;;;;;;5044443;28;19924;-71
2021/09/12 09:51:07;;;;;;;;;;;;;;;;;;5054371;28;19925;-72
2021/09/12 09:53:32;;;;;;;;;;;;;;;;;;5046924;28;19929;-74
2021/09/12 09:55:57;;;;;;;;;;;;;;;;;;5050398;28;19909;-72
2021/09/12 09:58:22;;;;;;;;;;;;;;;;;;5039257;28;20128;-72
2021/09/12 10:00:48;;;;;;;;;;;;;;;;;;5044072;28;19909;-72
2021/09/12 10:09:32;;;;;;;;;;;;;;;;;;5043668;28;19923;-71
2021/09/12 10:11:59;;;;;;;;;;;;;;;;;;5055102;28;20059;-72
2021/09/12 10:14:25;;;;;;;;;;;;;;;;;;5036551;28;19932;-69
2021/09/12 10:19:59;;;;;;;;;;;;;;;;;;5027809;28;19977;-72
2021/09/12 10:22:25;;;;;;;;;;;;;;;;;;5032137;28;19921;-71
2021/09/12 10:24:50;;;;;;;;;;;;;;;;;;5043301;28;19976;-72
2021/09/12 10:33:35;;;;;;;;;;;;;;;;;;5045095;28;19931;-71
2021/09/12 10:39:21;;;;;;;;;;;;;;;;;;5030497;28;19983;-71
2021/09/12 10:41:46;;;;;;;;;;;;;;;;;;5040757;28;19918;-71
2021/09/12 10:44:11;;;;;;;;;;;;;;;;;;5033769;28;19913;-67
2021/09/12 10:46:36;;;;;;;;;;;;;;;;;;5036027;28;19920;-70
2021/09/12 10:49:02;;;;;;;;;;;;;;;;;;5041785;28;19914;-71
2021/09/12 10:51:27;;;;;;;;;;;;;;;;;;5066267;28;19963;-71
2021/09/12 10:53:55;;;;;;;;;;;;;;;;;;5040083;28;19917;-71
2021/09/12 10:56:20;;;;;;;;;;;;;;;;;;5035748;28;19914;-73
2021/09/12 10:58:48;;;;;;;;;;;;;;;;;;5051847;28;19924;-68
2021/09/12 11:01:14;;;;;;;;;;;;;;;;;;5044052;28;20207;-71
2021/09/12 11:03:41;;;;;;;;;;;;;;;;;;5051892;28;19917;-72
2021/09/12 11:06:06;;;;;;;;;;;;;;;;;;5044210;28;19913;-72
2021/09/12 11:08:32;;;;;;;;;;;;;;;;;;5031945;28;19944;-72
2021/09/12 11:10:57;;;;;;;;;;;;;;;;;;5037251;28;19916;-71
2021/09/12 11:13:23;;;;;;;;;;;;;;;;;;5040452;28;19921;-72
2021/09/12 11:15:48;;;;;;;;;;;;;;;;;;5038914;28;19916;-72
2021/09/12 11:18:13;;;;;;;;;;;;;;;;;;5040797;28;19913;-72
2021/09/12 11:20:38;;;;;;;;;;;;;;;;;;5068367;28;19912;-73
2021/09/12 11:23:03;;;;;;;;;;;;;;;;;;5033388;28;20012;-73
2021/09/12 11:25:29;;;;;;;;;;;;;;;;;;5043567;28;20202;-73
2021/09/12 11:27:54;;;;;;;;;;;;;;;;;;5026933;28;19913;-73
2021/09/12 11:30:19;;;;;;;;;;;;;;;;;;5042890;28;19940;-71
2021/09/12 11:32:44;;;;;;;;;;;;;;;;;;5035789;28;19913;-70
2021/09/12 11:35:12;;;;;;;;;;;;;;;;;;5040074;28;19921;-71
2021/09/12 11:37:37;;;;;;;;;;;;;;;;;;5041492;28;19966;-71
2021/09/12 11:40:02;;;;;;;;;;;;;;;;;;5037849;28;19911;-71
2021/09/12 11:42:27;;;;;;;;;;;;;;;;;;5040821;28;19909;-72
2021/09/12 11:44:55;;;;;;;;;;;;;;;;;;5033227;28;19944;-72
2021/09/12 11:47:20;;;;;;;;;;;;;;;;;;5042592;28;19928;-72
2021/09/12 11:49:45;;;;;;;;;;;;;;;;;;5050442;28;20019;-68
2021/09/12 11:52:10;;;;;;;;;;;;;;;;;;5038066;28;19925;-71
2021/09/12 11:54:35;;;;;;;;;;;;;;;;;;5060610;28;19909;-71
2021/09/12 11:57:01;;;;;;;;;;;;;;;;;;5037635;28;19913;-71
2021/09/12 11:59:26;;;;;;;;;;;;;;;;;;5040292;28;19905;-71
2021/09/12 12:01:52;;;;;;;;;;;;;;;;;;5047107;28;20123;-72
2021/09/12 12:04:17;;;;;;;;;;;;;;;;;;5040117;28;19913;-72
2021/09/12 12:06:42;;;;;;;;;;;;;;;;;;5050490;28;19909;-72
2021/09/12 12:09:08;;;;;;;;;;;;;;;;;;5044069;28;20093;-72
2021/09/12 12:11:33;;;;;;;;;;;;;;;;;;5041524;28;19957;-70
2021/09/12 12:14:02;;;;;;;;;;;;;;;;;;5046084;28;19925;-71
2021/09/12 12:16:27;;;;;;;;;;;;;;;;;;5038319;28;19902;-72
2021/09/12 12:18:52;;;;;;;;;;;;;;;;;;5044345;28;19925;-72
2021/09/12 12:21:17;;;;;;;;;;;;;;;;;;5038888;28;19905;-71
2021/09/12 12:23:43;;;;;;;;;;;;;;;;;;5041648;28;19908;-72
2021/09/12 12:26:08;;;;;;;;;;;;;;;;;;5043526;28;19913;-72
2021/09/12 12:28:33;;;;;;;;;;;;;;;;;;5037477;28;19913;-69
2021/09/12 12:30:58;;;;;;;;;;;;;;;;;;5045079;28;19956;-71
2021/09/12 12:33:23;;;;;;;;;;;;;;;;;;5039737;28;19924;-70
2021/09/12 12:35:49;;;;;;;;;;;;;;;;;;5040297;28;19914;-72
2021/09/12 12:38:14;;;;;;;;;;;;;;;;;;5045768;28;19996;-73
2021/09/12 12:40:39;;;;;;;;;;;;;;;;;;5038882;28;19968;-72
2021/09/12 12:43:04;;;;;;;;;;;;;;;;;;5044374;28;19913;-72
2021/09/12 12:45:30;;;;;;;;;;;;;;;;;;5043456;28;19905;-72
2021/09/12 12:47:55;;;;;;;;;;;;;;;;;;5038078;28;20044;-72
2021/09/12 12:50:20;;;;;;;;;;;;;;;;;;5044066;28;19917;-73
2021/09/12 12:52:45;;;;;;;;;;;;;;;;;;5036335;28;19916;-72
2021/09/12 12:55:10;;;;;;;;;;;;;;;;;;5045611;28;19937;-71
2021/09/12 12:57:36;;;;;;;;;;;;;;;;;;5039995;28;19913;-74
2021/09/12 13:00:01;;;;;;;;;;;;;;;;;;5045212;28;19913;-70
2021/09/12 13:02:26;;;;;;;;;;;;;;;;;;5045469;28;19905;-70
2021/09/12 13:04:52;;;;;;;;;;;;;;;;;;5040354;28;19917;-70
2021/09/12 13:07:17;;;;;;;;;;;;;;;;;;5047418;28;19956;-71
2021/09/12 13:09:42;;;;;;;;;;;;;;;;;;5040594;28;19905;-71
2021/09/12 13:12:07;;;;;;;;;;;;;;;;;;5037744;28;19917;-72
2021/09/12 13:14:33;;;;;;;;;;;;;;;;;;5044791;28;19905;-71
2021/09/12 13:16:58;;;;;;;;;;;;;;;;;;5040031;28;19902;-69
2021/09/12 13:19:24;;;;;;;;;;;;;;;;;;5045130;28;19925;-69
2021/09/12 13:21:50;;;;;;;;;;;;;;;;;;5037937;28;20006;-71
2021/09/12 13:24:15;;;;;;;;;;;;;;;;;;5057061;28;20163;-70
2021/09/12 13:26:40;;;;;;;;;;;;;;;;;;5046204;28;19932;-70
2021/09/12 13:29:05;;;;;;;;;;;;;;;;;;5039571;28;19913;-70
2021/09/12 13:31:32;;;;;;;;;;;;;;;;;;5046108;28;19909;-70
2021/09/12 13:34:00;;;;;;;;;;;;;;;;;;5039809;28;19945;-68
2021/09/12 13:36:25;;;;;;;;;;;;;;;;;;5038665;28;19912;-71
2021/09/12 13:38:52;;;;;;;;;;;;;;;;;;5045754;28;19905;-71
2021/09/12 13:41:17;;;;;;;;;;;;;;;;;;5069640;28;19902;-71
2021/09/12 13:43:42;;;;;;;;;;;;;;;;;;5045325;28;19912;-71
2021/09/12 13:46:08;;;;;;;;;;;;;;;;;;5040848;28;19916;-67
2021/09/12 13:48:33;;;;;;;;;;;;;;;;;;5037028;28;21029;-70
2021/09/12 13:50:58;;;;;;;;;;;;;;;;;;5044021;28;19981;-70
2021/09/12 13:53:23;;;;;;;;;;;;;;;;;;5040832;28;19912;-70
2021/09/12 13:55:48;;;;;;;;;;;;;;;;;;5043499;28;19902;-70
2021/09/12 13:58:14;;;;;;;;;;;;;;;;;;5054968;28;19913;-70
2021/09/12 14:00:39;;;;;;;;;;;;;;;;;;5073216;28;19997;-70
2021/09/12 14:03:04;;;;;;;;;;;;;;;;;;5043815;28;19952;-71
2021/09/12 14:05:29;;;;;;;;;;;;;;;;;;5038950;28;19944;-71
2021/09/12 14:07:55;;;;;;;;;;;;;;;;;;5044704;28;19908;-71
2021/09/12 14:10:20;;;;;;;;;;;;;;;;;;5040172;28;19913;-72
2021/09/12 14:12:45;;;;;;;;;;;;;;;;;;5040706;28;19925;-71
2021/09/12 14:15:11;;;;;;;;;;;;;;;;;;5078175;28;19921;-70
2021/09/12 14:17:36;;;;;;;;;;;;;;;;;;5040042;28;19913;-71
2021/09/12 14:20:01;;;;;;;;;;;;;;;;;;5076209;28;19921;-71
2021/09/12 14:22:26;;;;;;;;;;;;;;;;;;5036861;28;19919;-71
2021/09/12 14:24:51;;;;;;;;;;;;;;;;;;5038996;28;19919;-70
2021/09/12 14:27:21;;;;;;;;;;;;;;;;;;5043977;28;19960;-71
2021/09/12 14:29:47;;;;;;;;;;;;;;;;;;5038863;28;19932;-71
2021/09/12 14:32:13;;;;;;;;;;;;;;;;;;5038841;28;19981;-72
2021/09/12 14:34:38;;;;;;;;;;;;;;;;;;5049093;28;19913;-72
2021/09/12 14:37:04;;;;;;;;;;;;;;;;;;5040427;28;19931;-72
2021/09/12 14:39:29;;;;;;;;;;;;;;;;;;5046056;28;19909;-72
2021/09/12 14:41:54;;;;;;;;;;;;;;;;;;5041126;28;20105;-72
2021/09/12 14:44:21;;;;;;;;;;;;;;;;;;5041687;28;19916;-72
2021/09/12 14:46:46;;;;;;;;;;;;;;;;;;5049545;28;19927;-71
2021/09/12 14:49:11;;;;;;;;;;;;;;;;;;5056491;28;19921;-71
2021/09/12 14:51:36;;;;;;;;;;;;;;;;;;5043002;28;19918;-72
2021/09/12 14:54:04;;;;;;;;;;;;;;;;;;5037776;28;19906;-72
2021/09/12 14:56:30;;;;;;;;;;;;;;;;;;5052016;28;19912;-72
2021/09/12 14:58:57;;;;;;;;;;;;;;;;;;5044595;28;20173;-69
2021/09/12 15:01:23;;;;;;;;;;;;;;;;;;5034553;28;19916;-71
2021/09/12 15:03:48;;;;;;;;;;;;;;;;;;5039741;28;19905;-72
2021/09/12 15:06:14;;;;;;;;;;;;;;;;;;5034370;28;19969;-73
2021/09/12 15:08:41;;;;;;;;;;;;;;;;;;5038354;28;20075;-73
2021/09/12 15:11:06;;;;;;;;;;;;;;;;;;5044517;28;20180;-72
2021/09/12 15:13:32;;;;;;;;;;;;;;;;;;5037886;28;19928;-73
2021/09/12 15:16:00;;;;;;;;;;;;;;;;;;5056770;28;19905;-74
2021/09/12 15:18:26;;;;;;;;;;;;;;;;;;5041505;28;19936;-73
2021/09/12 15:20:51;;;;;;;;;;;;;;;;;;5043889;28;19910;-73
2021/09/12 15:23:16;;;;;;;;;;;;;;;;;;5051167;28;20228;-71
2021/09/12 15:25:41;;;;;;;;;;;;;;;;;;5074884;28;19960;-72
2021/09/12 15:28:07;;;;;;;;;;;;;;;;;;5050068;28;19905;-71
2021/09/12 15:30:32;;;;;;;;;;;;;;;;;;5041049;28;19912;-71
2021/09/12 15:32:57;;;;;;;;;;;;;;;;;;5045988;28;19937;-71
2021/09/12 15:35:22;;;;;;;;;;;;;;;;;;5049431;28;19905;-72
2021/09/12 15:37:47;;;;;;;;;;;;;;;;;;5044493;28;20152;-72
2021/09/12 15:40:13;;;;;;;;;;;;;;;;;;5078882;28;20024;-72
2021/09/12 15:42:38;;;;;;;;;;;;;;;;;;5044554;28;19913;-72
2021/09/12 15:45:04;;;;;;;;;;;;;;;;;;5039329;28;20492;-72
2021/09/12 15:47:29;;;;;;;;;;;;;;;;;;5064077;28;19928;-71
2021/09/12 15:49:54;;;;;;;;;;;;;;;;;;5040970;28;19977;-71
2021/09/12 15:52:20;;;;;;;;;;;;;;;;;;5052289;28;19916;-70
2021/09/12 15:54:45;;;;;;;;;;;;;;;;;;5031429;28;19905;-71
2021/09/12 15:57:12;;;;;;;;;;;;;;;;;;5043058;28;19916;-71
2021/09/12 15:59:38;;;;;;;;;;;;;;;;;;5046922;28;20192;-71
2021/09/12 16:02:03;;;;;;;;;;;;;;;;;;5058128;28;19901;-71
2021/09/12 16:04:29;;;;;;;;;;;;;;;;;;5046784;28;19961;-69
2021/09/12 16:06:54;;;;;;;;;;;;;;;;;;5039118;28;19969;-71
2021/09/12 16:09:19;;;;;;;;;;;;;;;;;;5033308;28;19912;-71
2021/09/12 16:11:44;;;;;;;;;;;;;;;;;;5047687;28;19969;-70
2021/09/12 16:14:10;;;;;;;;;;;;;;;;;;5041784;28;19912;-69
2021/09/12 16:16:35;;;;;;;;;;;;;;;;;;5046506;28;19908;-69
2021/09/12 16:19:03;;;;;;;;;;;;;;;;;;5042556;28;19949;-70
2021/09/12 16:21:30;;;;;;;;;;;;;;;;;;5043055;28;19921;-69
2021/09/12 16:23:56;;;;;;;;;;;;;;;;;;5045845;28;19914;-70
2021/09/12 16:26:21;;;;;;;;;;;;;;;;;;5039492;28;19928;-70
2021/09/12 16:28:46;;;;;;;;;;;;;;;;;;5047169;28;19917;-70
2021/09/12 16:31:11;;;;;;;;;;;;;;;;;;5041855;28;19924;-70
2021/09/12 16:33:37;;;;;;;;;;;;;;;;;;5054695;28;19901;-71
2021/09/12 16:36:02;;;;;;;;;;;;;;;;;;5042606;28;19916;-70
2021/09/12 16:38:27;;;;;;;;;;;;;;;;;;5042217;28;19984;-71
2021/09/12 16:40:52;;;;;;;;;;;;;;;;;;5046638;28;19913;-71
2021/09/12 16:43:22;;;;;;;;;;;;;;;;;;5035543;28;20010;-70
2021/09/12 16:48:13;;;;;;;;;;;;;;;;;;5044369;28;19917;-70
2021/09/12 16:50:38;;;;;;;;;;;;;;;;;;5038746;28;19909;-70
2021/09/12 16:53:03;;;;;;;;;;;;;;;;;;5042299;28;19940;-69
2021/09/12 16:55:29;;;;;;;;;;;;;;;;;;5029577;28;19952;-70